Aviation Digital Data Service (ADDS)

Output produced by TAFs form (0519 UTC 19 January 2018)
found at http://www.aviationweather.gov/adds/tafs/
 
KALB 182335Z 1900/1924 28012G20KT P6SM BKN040 
     FM190300 28005KT P6SM BKN030 BKN100 
     FM191500 27007KT P6SM BKN030